Latest Coastal Weather Observations for Portland Harbour

IDV60701

Issued at 1:31 pm EST Wednesday 25 May 2016 (issued every 10 minutes, with the page automatically refreshed every 10 minutes)

About coastal observations | Map of coastal stations | Coastal observations for VIC | Marine services | Other Formats
Station Details ID: 090192 Name: PORTLAND NTC AWS Lat: -38.34 Lon: 141.61 Height: 0.0 m
Data from the previous 72 hours. | See also: Recent months for locations in Victoria
Date/Time
EST
Temp

°C
Wind Pressure Rain
since 9am
mm
Weather Cloud Vis
km
Sea
Height
m
Swell
Dir
 
Speed
knots
Gust
knots
hPa Trend Height
m
Period
s
Dir
25/01:30pm 11.8 NNW 14 20 1006.5 - - - - - - - - -
25/01:00pm 12.1 NNW 17 23 1006.9 - - - - - - - - -
25/12:30pm 12.8 NNW 17 27 1007.3 - - - - - - - - -
25/12:00pm 13.3 NNW 17 24 1007.7 - - - - - - - - -
25/11:46am 13.3 NNW 18 29 1007.9 - - - - - - - - -
25/11:30am 13.3 NNW 18 24 1008.2 - - - - - - - - -
25/11:00am 13.1 NNW 17 22 1008.8 - - - - - - - - -
25/10:30am 13.6 NNW 17 24 1008.7 - - - - - - - - -
25/10:00am 14.0 NNW 19 26 1008.9 - - - - - - - - -
25/09:30am 14.3 NNW 18 23 1008.7 - - - - - - - - -
25/09:16am 14.3 NNW 19 29 1008.8 - - - - - - - - -
25/09:00am 14.4 NNW 17 24 1009.2 - - - - - - - - -
25/08:30am 14.3 NNW 14 18 1009.3 - - - - - - - - -
25/08:00am 13.9 NNW 14 20 1009.6 - - - - - - - - -
25/07:30am 13.8 NNW 13 17 1009.6 - - - - - - - - -
25/07:00am 13.8 NNW 12 17 1010.0 - - - - - - - - -
25/06:30am 13.5 N 12 15 1010.4 - - - - - - - - -
25/06:00am 13.7 N 11 13 1010.7 - - - - - - - - -
25/05:30am 13.9 N 11 14 1010.8 - - - - - - - - -
25/05:00am 13.9 N 13 15 1011.3 - - - - - - - - -
25/04:30am 13.8 N 10 13 1011.7 - - - - - - - - -
25/04:00am 13.9 N 11 13 1012.2 - - - - - - - - -
25/03:30am 13.7 N 9 12 1012.2 - - - - - - - - -
25/03:00am 13.6 N 8 10 1012.7 - - - - - - - - -
25/02:30am 13.5 N 10 11 1013.3 - - - - - - - - -
25/02:00am 13.8 N 10 11 1013.6 - - - - - - - - -
25/01:30am 13.4 N 9 12 1014.0 - - - - - - - - -
25/01:00am 13.5 N 11 13 1014.7 - - - - - - - - -
25/12:30am 13.0 N 9 11 1015.2 - - - - - - - - -
25/12:00am 12.8 N 7 9 1015.5 - - - - - - - - -
 
Date/Time
EST
Temp

°C
Wind Pressure Rain
since 9am
mm
Weather Cloud Vis
km
Sea
Height
m
Swell
Dir
 
Speed
knots
Gust
knots
hPa Trend Height
m
Period
s
Dir
24/11:30pm 12.8 N 8 9 1015.8 - - - - - - - - -
24/11:00pm 13.0 NNW 9 10 1016.1 - - - - - - - - -
24/10:30pm 13.3 N 7 8 1016.4 - - - - - - - - -
24/10:00pm 13.6 N 6 7 1016.6 - - - - - - - - -
24/09:30pm 13.9 N 5 6 1016.9 - - - - - - - - -
24/09:00pm 14.1 N 5 6 1017.3 - - - - - - - - -
24/08:30pm 14.4 NNE 4 5 1017.3 - - - - - - - - -
24/08:00pm 14.7 NNE 4 5 1017.6 - - - - - - - - -
24/07:30pm 14.8 N 8 9 1017.7 - - - - - - - - -
24/07:00pm 14.9 NNE 7 8 1017.7 - - - - - - - - -
24/06:30pm 14.8 NNE 6 8 1017.9 - - - - - - - - -
24/06:00pm 15.2 NNE 7 8 1018.0 - - - - - - - - -
24/05:30pm 15.2 NE 5 6 1018.1 - - - - - - - - -
24/05:00pm 15.2 ENE 5 6 1018.0 - - - - - - - - -
24/04:30pm 15.4 ENE 6 6 1018.2 - - - - - - - - -
24/04:00pm 15.7 S 4 6 1018.3 - - - - - - - - -
24/03:30pm 16.7 W 6 9 1018.1 - - - - - - - - -
24/03:00pm 16.7 W 6 13 1018.1 - - - - - - - - -
24/02:30pm 16.4 W 6 12 1018.2 - - - - - - - - -
24/02:00pm 16.1 SW 7 10 1018.7 - - - - - - - - -
24/01:30pm 15.9 S 2 8 1019.0 - - - - - - - - -
24/01:00pm 15.1 NE 5 7 1019.0 - - - - - - - - -
24/12:30pm 14.9 NE 5 6 1019.2 - - - - - - - - -
24/12:00pm 14.6 NNE 5 7 1019.9 - - - - - - - - -
24/11:30am 15.0 NNW 4 9 1020.6 - - - - - - - - -
24/11:00am 13.9 NNE 5 6 1020.9 - - - - - - - - -
24/10:30am 13.7 N 5 6 1020.9 - - - - - - - - -
24/10:00am 13.3 WNW 4 5 1021.2 - - - - - - - - -
24/09:30am 12.2 WNW 5 7 1021.3 - - - - - - - - -
24/09:00am 12.1 WNW 6 7 1021.2 - - - - - - - - -
24/08:30am 11.9 WNW 4 5 1021.2 - - - - - - - - -
24/08:00am 11.9 WNW 4 5 1021.0 - - - - - - - - -
24/07:30am 12.3 WNW 5 7 1020.9 - - - - - - - - -
24/07:00am 12.3 W 3 4 1020.8 - - - - - - - - -
24/06:30am 12.3 W 4 5 1020.4 - - - - - - - - -
24/06:00am 12.3 WNW 3 4 1020.1 - - - - - - - - -
24/05:30am 12.7 WNW 4 5 1019.9 - - - - - - - - -
24/05:00am 13.4 WSW 6 8 1019.8 - - - - - - - - -
24/04:30am 13.0 WSW 5 8 1019.7 - - - - - - - - -
24/04:00am 12.7 W 7 8 1019.7 - - - - - - - - -
24/03:30am 12.9 WSW 6 9 1019.8 - - - - - - - - -
24/03:00am 13.2 WSW 7 10 1019.9 - - - - - - - - -
24/02:30am 13.6 WSW 6 9 1019.8 - - - - - - - - -
24/02:00am 13.8 WSW 6 9 1019.7 - - - - - - - - -
24/01:30am 13.9 WSW 8 13 1019.6 - - - - - - - - -
24/01:00am 14.1 WSW 8 11 1019.6 - - - - - - - - -
24/12:30am 14.1 WSW 6 10 1019.7 - - - - - - - - -
24/12:00am 13.8 W 5 12 1019.7 - - - - - - - - -
 
Date/Time
EST
Temp

°C
Wind Pressure Rain
since 9am
mm
Weather Cloud Vis
km
Sea
Height
m
Swell
Dir
 
Speed
knots
Gust
knots
hPa Trend Height
m
Period
s
Dir
23/11:30pm 13.4 WNW 3 5 1019.8 - - - - - - - - -
23/11:00pm 13.8 W 5 7 1019.9 - - - - - - - - -
23/10:30pm 14.1 WSW 8 13 1020.0 - - - - - - - - -
23/10:00pm 14.1 WSW 6 10 1019.9 - - - - - - - - -
23/09:30pm 13.8 W 6 9 1019.7 - - - - - - - - -
23/09:00pm 13.6 W 5 10 1019.5 - - - - - - - - -
23/08:30pm 13.2 WNW 3 6 1019.6 - - - - - - - - -
23/08:00pm 13.3 W 5 7 1019.4 - - - - - - - - -
23/07:30pm 13.4 W 5 9 1019.2 - - - - - - - - -
23/07:00pm 13.7 WSW 8 12 1018.9 - - - - - - - - -
23/06:30pm 13.9 WSW 10 13 1018.6 - - - - - - - - -
23/06:00pm 14.0 WSW 12 17 1018.4 - - - - - - - - -
23/05:30pm 14.0 WSW 13 18 1018.0 - - - - - - - - -
23/05:00pm 13.9 WSW 11 17 1017.6 - - - - - - - - -
23/04:30pm 13.6 SW 11 14 1017.5 - - - - - - - - -
23/04:00pm 14.8 W 13 19 1016.9 - - - - - - - - -
23/03:30pm 14.9 W 12 21 1016.7 - - - - - - - - -
23/03:00pm 13.9 W 8 14 1016.8 - - - - - - - - -
23/02:30pm 13.8 WNW 13 22 1016.8 - - - - - - - - -
23/02:00pm 14.3 WNW 13 19 1016.7 - - - - - - - - -
23/01:30pm 14.4 WNW 15 21 1016.8 - - - - - - - - -
23/01:00pm 13.8 WNW 14 22 1017.1 - - - - - - - - -
23/12:30pm 13.3 W 11 17 1017.4 - - - - - - - - -
23/12:00pm 14.9 W 12 21 1017.0 - - - - - - - - -
23/11:34am 15.2 W 15 25 1017.3 - - - - - - - - -
23/11:30am 15.2 W 17 25 1017.3 - - - - - - - - -
23/11:27am 15.1 W 17 24 1017.1 - - - - - - - - -
23/11:00am 14.3 W 10 14 1017.4 - - - - - - - - -
23/10:30am 14.3 WSW 12 17 1017.1 - - - - - - - - -
23/10:00am 12.9 WNW 13 20 1017.3 - - - - - - - - -
23/09:30am 13.6 WSW 12 18 1017.1 - - - - - - - - -
23/09:00am 12.7 WSW 13 21 1017.0 - - - - - - - - -
23/08:30am 13.2 WSW 11 16 1016.4 - - - - - - - - -
23/08:00am 13.3 WSW 16 24 1015.9 - - - - - - - - -
23/07:30am 13.1 WSW 13 21 1015.5 - - - - - - - - -
23/07:03am 13.2 WSW 15 25 1014.6 - - - - - - - - -
23/07:00am 13.1 WSW 13 20 1014.5 - - - - - - - - -
23/06:30am 13.1 WSW 15 27 1014.0 - - - - - - - - -
23/06:00am 13.0 WSW 18 32 1013.5 - - - - - - - - -
23/05:53am 12.7 WSW 15 26 1013.3 - - - - - - - - -
23/05:30am 12.4 WSW 14 26 1013.1 - - - - - - - - -
23/05:11am 12.8 WSW 15 29 1012.8 - - - - - - - - -
23/05:00am 12.9 WSW 15 24 1012.4 - - - - - - - - -
23/04:30am 12.0 W 13 21 1011.6 - - - - - - - - -
23/04:08am 11.6 WSW 16 27 1011.2 - - - - - - - - -
23/04:00am 11.0 W 13 21 1011.1 - - - - - - - - -
23/03:38am 10.6 WNW 10 30 1010.6 - - - - - - - - -
23/03:30am 11.3 WNW 7 12 1010.3 - - - - - - - - -
23/03:02am 11.1 WNW 14 28 1010.4 - - - - - - - - -
23/03:00am 11.2 WNW 13 26 1010.5 - - - - - - - - -
23/02:30am 11.5 NW 11 17 1009.3 - - - - - - - - -
23/02:00am 12.0 NW 12 18 1009.3 - - - - - - - - -
23/01:30am 11.7 WNW 14 20 1009.1 - - - - - - - - -
23/01:00am 12.2 WNW 11 35 1009.4 - - - - - - - - -
23/12:59am 13.0 WNW 10 29 1009.4 - - - - - - - - -
23/12:30am 13.2 NW 12 17 1008.7 - - - - - - - - -
23/12:00am 13.5 NW 14 21 1008.2 - - - - - - - - -
 
Date/Time
EST
Temp

°C
Wind Pressure Rain
since 9am
mm
Weather Cloud Vis
km
Sea
Height
m
Swell
Dir
 
Speed
knots
Gust
knots
hPa Trend Height
m
Period
s
Dir
22/11:30pm 13.4 NNW 11 16 1008.2 - - - - - - - - -
22/11:00pm 13.9 NNW 17 23 1008.0 - - - - - - - - -
22/10:30pm 14.0 NNW 12 16 1008.6 - - - - - - - - -
22/10:00pm 14.0 NNW 11 15 1008.4 - - - - - - - - -
22/09:30pm 14.2 WNW 14 19 1008.6 - - - - - - - - -
22/09:00pm 15.1 NW 14 20 1008.5 - - - - - - - - -
22/08:30pm 15.4 NNW 12 17 1008.0 - - - - - - - - -
22/08:00pm 15.4 NNW 12 16 1007.9 - - - - - - - - -
22/07:30pm 15.1 NNW 16 23 1008.0 - - - - - - - - -
22/07:00pm 15.7 NNW 19 25 1007.7 - - - - - - - - -
22/06:30pm 16.5 NNW 17 23 1007.4 - - - - - - - - -
22/06:00pm 16.9 NNW 15 20 1007.0 - - - - - - - - -
22/05:30pm 17.5 NNW 15 19 1007.3 - - - - - - - - -
22/05:00pm 18.9 NNW 19 27 1006.7 - - - - - - - - -
22/04:30pm 18.7 N 19 27 1006.7 - - - - - - - - -
22/04:00pm 18.3 N 15 18 1006.9 - - - - - - - - -
22/03:30pm 19.2 NNW 15 19 1007.2 - - - - - - - - -
22/03:00pm 18.4 N 18 25 1006.4 - - - - - - - - -
22/02:30pm 18.5 N 20 26 1006.6 - - - - - - - - -
22/02:00pm 17.9 N 23 31 1006.7 - - - - - - - - -

Other Formats:

Comma delimited format used in spreadsheet applications
http://www.bom.gov.au/fwo/IDV60701/IDV60701.95826.axf

JavaScript Object Notation format (JSON) in row-major order
http://www.bom.gov.au/fwo/IDV60701/IDV60701.95826.json